Ocean Navigator — WSC2552 — position and weather

sailwx.info

Track history (hours):
 
Tides and Currents Weather Stations Pressure Air Temp Water Temp Dewpoint Dewpoint Depression Visibility Wind Speed Wind Dir Waves Ship Positions

Ocean Navigator

Owner: OCEAN NAVIGATOR INC, SEATTLE, WA. More information available from US FCC via Universal Licensing System and Coast Guard Vessel Documentation Center.

Last reported at 2016-May-03 01:34 UTC. Time now 2016-May-04 01:52 UTC.
Position N 47°40' W 122°24'.

MMSI: 366358000.

Date/timePositionNaut miles runAvg speedWind from/ knotsBaromVisibWave heightAir tempDewpointWater temp
2016-May-03 01:34N 47°40' W 122°24'5 4.5
2016-May-03 00:34N 47°35' W 122°22'2 1.6
2016-May-02 23:34N 47°36' W 122°24'9 8.5
2016-May-02 22:33N 47°45' W 122°27'9 9.4
2016-May-02 21:34N 47°54' W 122°30'30 9.3
2016-May-02 18:18N 48°22' W 122°46'810.6
2016-May-02 17:33N 48°30' W 122°45'1010.5
2016-May-02 16:33N 48°41' W 122°44'10 9.4
2016-May-02 15:33N 48°47' W 122°54'1010.3
2016-May-02 14:33N 48°53' W 123°07'1110.8
2016-May-02 13:34N 49°00' W 123°19'1010.1
2016-May-02 12:33N 49°07' W 123°31'1010.2
2016-May-02 11:33N 49°14' W 123°42'1010.2
2016-May-02 10:33N 49°20' W 123°54'1110.1
2016-May-02 09:29N 49°28' W 124°06'9 9.8
2016-May-02 08:33N 49°32' W 124°18'10 9.8
2016-May-02 07:32N 49°37' W 124°32'1010.1
2016-May-02 06:34N 49°43' W 124°45'10 9.9
2016-May-02 05:33N 49°50' W 124°55'10 9.9
2016-May-02 04:32N 49°56' W 125°07'1111.2
2016-May-02 03:33N 50°05' W 125°17'10 9.5
2016-May-02 02:32N 50°14' W 125°23'70 7.8
2016-May-01 17:33N 50°44' W 127°03'9 8.5
2016-May-01 16:33N 50°49' W 127°14'9 9.6
2016-May-01 15:33N 50°55' W 127°26'9 9.1
2016-May-01 14:33N 51°01' W 127°37'9 9.0
2016-May-01 13:32N 51°07' W 127°49'9 9.4
2016-May-01 12:33N 51°15' W 127°53'9 9.2
2016-May-01 11:33N 51°25' W 127°52'3110.0
2016-May-01 08:29N 51°55' W 127°56'9 9.6
2016-May-01 07:33N 52°04' W 127°58'8 7.7
2016-May-01 06:32N 52°09' W 128°08'7 7.3
2016-May-01 05:33N 52°14' W 128°15'  
2016-Apr-25 01:08N 52°15' W 128°20'5 8.6
2016-Apr-25 00:33N 52°14' W 128°12'7 6.4
2016-Apr-24 23:23N 52°07' W 128°08'6 5.9
2016-Apr-24 22:23N 52°05' W 127°59'33 8.3
2016-Apr-24 18:22N 51°32' W 127°52'23 7.2
2016-Apr-24 15:12N 51°09' W 127°50'5 7.3
2016-Apr-24 14:33N 51°06' W 127°44'17 8.5
2016-Apr-24 12:33N 50°54' W 127°24'9 9.2
2016-Apr-24 11:33N 50°48' W 127°13'73 9.2
2016-Apr-24 03:33N 50°20' W 125°26'10 9.9
2016-Apr-24 02:33N 50°11' W 125°22'6 6.2
2016-Apr-24 01:33N 50°05' W 125°17'4 4.0
2016-Apr-24 00:33N 50°02' W 125°13'5 4.9
2016-Apr-23 23:33N 49°58' W 125°10'6 6.3
2016-Apr-23 22:33N 49°54' W 125°02'7 7.1
2016-Apr-23 21:33N 49°49' W 124°53'7 7.2
2016-Apr-23 20:33N 49°45' W 124°45'6 6.5
2016-Apr-23 19:34N 49°41' W 124°37'8 8.0
2016-Apr-23 18:33N 49°36' W 124°27'9 9.4
2016-Apr-23 17:33N 49°32' W 124°14'9 9.4
2016-Apr-23 16:33N 49°26' W 124°03'10 9.6
2016-Apr-23 15:34N 49°20' W 123°51'10 9.8
2016-Apr-23 14:33N 49°14' W 123°39'10 9.6
2016-Apr-23 13:33N 49°08' W 123°28'10 9.7
2016-Apr-23 12:33N 49°01' W 123°17'9 9.2
2016-Apr-23 11:33N 48°55' W 123°06'9 9.4
2016-Apr-23 10:33N 48°49' W 122°55'10 9.5
2016-Apr-23 09:33N 48°43' W 122°44'8 8.3
2016-Apr-23 08:33N 48°35' W 122°45'8 8.5
2016-Apr-23 07:33N 48°26' W 122°44'28 9.4
2016-Apr-23 04:32N 47°59' W 122°35'9 9.7
2016-Apr-23 03:33N 47°51' W 122°27'10 9.7
2016-Apr-23 02:33N 47°41' W 122°27'  
Track history (hours):
 
Tides and Currents Weather Stations Pressure Air Temp Water Temp Dewpoint Dewpoint Depression Visibility Wind Speed Wind Dir Waves Ship Positions

Ocean Navigator

Owner: OCEAN NAVIGATOR INC, SEATTLE, WA. More information available from US FCC via Universal Licensing System and Coast Guard Vessel Documentation Center.

Last reported at 2016-May-03 01:34 UTC. Time now 2016-May-04 01:52 UTC.
Position N 47°40' W 122°24'.

MMSI: 366358000.

Date/timePositionNaut miles runAvg speedWind from/ knotsBaromVisibWave heightAir tempDewpointWater temp
2016-May-03 01:34N 47°40' W 122°24'5 4.5
2016-May-03 00:34N 47°35' W 122°22'2 1.6
2016-May-02 23:34N 47°36' W 122°24'9 8.5
2016-May-02 22:33N 47°45' W 122°27'9 9.4
2016-May-02 21:34N 47°54' W 122°30'30 9.3
2016-May-02 18:18N 48°22' W 122°46'810.6
2016-May-02 17:33N 48°30' W 122°45'1010.5
2016-May-02 16:33N 48°41' W 122°44'10 9.4
2016-May-02 15:33N 48°47' W 122°54'1010.3
2016-May-02 14:33N 48°53' W 123°07'1110.8
2016-May-02 13:34N 49°00' W 123°19'1010.1
2016-May-02 12:33N 49°07' W 123°31'1010.2
2016-May-02 11:33N 49°14' W 123°42'1010.2
2016-May-02 10:33N 49°20' W 123°54'1110.1
2016-May-02 09:29N 49°28' W 124°06'9 9.8
2016-May-02 08:33N 49°32' W 124°18'10 9.8
2016-May-02 07:32N 49°37' W 124°32'1010.1
2016-May-02 06:34N 49°43' W 124°45'10 9.9
2016-May-02 05:33N 49°50' W 124°55'10 9.9
2016-May-02 04:32N 49°56' W 125°07'1111.2
2016-May-02 03:33N 50°05' W 125°17'10 9.5
2016-May-02 02:32N 50°14' W 125°23'70 7.8
2016-May-01 17:33N 50°44' W 127°03'9 8.5
2016-May-01 16:33N 50°49' W 127°14'9 9.6
2016-May-01 15:33N 50°55' W 127°26'9 9.1
2016-May-01 14:33N 51°01' W 127°37'9 9.0
2016-May-01 13:32N 51°07' W 127°49'9 9.4
2016-May-01 12:33N 51°15' W 127°53'9 9.2
2016-May-01 11:33N 51°25' W 127°52'3110.0
2016-May-01 08:29N 51°55' W 127°56'9 9.6
2016-May-01 07:33N 52°04' W 127°58'8 7.7
2016-May-01 06:32N 52°09' W 128°08'7 7.3
2016-May-01 05:33N 52°14' W 128°15'  
2016-Apr-25 01:08N 52°15' W 128°20'5 8.6
2016-Apr-25 00:33N 52°14' W 128°12'7 6.4
2016-Apr-24 23:23N 52°07' W 128°08'6 5.9
2016-Apr-24 22:23N 52°05' W 127°59'33 8.3
2016-Apr-24 18:22N 51°32' W 127°52'23 7.2
2016-Apr-24 15:12N 51°09' W 127°50'5 7.3
2016-Apr-24 14:33N 51°06' W 127°44'17 8.5
2016-Apr-24 12:33N 50°54' W 127°24'9 9.2
2016-Apr-24 11:33N 50°48' W 127°13'73 9.2
2016-Apr-24 03:33N 50°20' W 125°26'10 9.9
2016-Apr-24 02:33N 50°11' W 125°22'6 6.2
2016-Apr-24 01:33N 50°05' W 125°17'4 4.0
2016-Apr-24 00:33N 50°02' W 125°13'5 4.9
2016-Apr-23 23:33N 49°58' W 125°10'6 6.3
2016-Apr-23 22:33N 49°54' W 125°02'7 7.1
2016-Apr-23 21:33N 49°49' W 124°53'7 7.2
2016-Apr-23 20:33N 49°45' W 124°45'6 6.5
2016-Apr-23 19:34N 49°41' W 124°37'8 8.0
2016-Apr-23 18:33N 49°36' W 124°27'9 9.4
2016-Apr-23 17:33N 49°32' W 124°14'9 9.4
2016-Apr-23 16:33N 49°26' W 124°03'10 9.6
2016-Apr-23 15:34N 49°20' W 123°51'10 9.8
2016-Apr-23 14:33N 49°14' W 123°39'10 9.6
2016-Apr-23 13:33N 49°08' W 123°28'10 9.7
2016-Apr-23 12:33N 49°01' W 123°17'9 9.2
2016-Apr-23 11:33N 48°55' W 123°06'9 9.4
2016-Apr-23 10:33N 48°49' W 122°55'10 9.5
2016-Apr-23 09:33N 48°43' W 122°44'8 8.3
2016-Apr-23 08:33N 48°35' W 122°45'8 8.5
2016-Apr-23 07:33N 48°26' W 122°44'28 9.4
2016-Apr-23 04:32N 47°59' W 122°35'9 9.7
2016-Apr-23 03:33N 47°51' W 122°27'10 9.7
2016-Apr-23 02:33N 47°41' W 122°27'  

Dump ship's entire track history